This is the latest recevied weather packets stored in our database for station/object HB9EKO-12. If no packets are shown the sender has not sent any weather packets the latest 10 day(s).
| Time | Temp. | Humidity | Pressure | Rain* | Wind** | Luminosity | Snow |
|---|---|---|---|---|---|---|---|
| 1777798706 | 20° C | 49% | 1017 hPa | - | - | - | - |
| 1777797801 | 20° C | 51% | 1017 hPa | - | - | - | - |
| 1777796896 | 19.44° C | 52% | 1017 hPa | - | - | - | - |
| 1777795991 | 18.89° C | 56% | 1017 hPa | - | - | - | - |
| 1777795085 | 18.33° C | 58% | 1017 hPa | - | - | - | - |
| 1777794180 | 18.33° C | 58% | 1017 hPa | - | - | - | - |
| 1777793275 | 17.78° C | 61% | 1017 hPa | - | - | - | - |
| 1777792370 | 17.22° C | 62% | 1017 hPa | - | - | - | - |
| 1777791464 | 16.11° C | 65% | 1017 hPa | - | - | - | - |
| 1777790559 | 15° C | 69% | 1017 hPa | - | - | - | - |
| 1777789654 | 15° C | 73% | 1017 hPa | - | - | - | - |
| 1777788749 | 14.44° C | 72% | 1017 hPa | - | - | - | - |
| 1777787843 | 13.89° C | 76% | 1017 hPa | - | - | - | - |
| 1777786938 | 13.89° C | 76% | 1017 hPa | - | - | - | - |
| 1777786033 | 13.33° C | 76% | 1017 hPa | - | - | - | - |
| 1777785128 | 12.78° C | 77% | 1017 hPa | - | - | - | - |
| 1777784222 | 13.33° C | 74% | 1017 hPa | - | - | - | - |
| 1777783317 | 13.33° C | 75% | 1017 hPa | - | - | - | - |
| 1777782412 | 12.78° C | 76% | 1017 hPa | - | - | - | - |
| 1777781507 | 12.78° C | 74% | 1017 hPa | - | - | - | - |
| 1777780602 | 13.33° C | 71% | 1017 hPa | - | - | - | - |
| 1777779696 | 13.89° C | 71% | 1017 hPa | - | - | - | - |
| 1777778791 | 14.44° C | 67% | 1017 hPa | - | - | - | - |
| 1777777886 | 14.44° C | 66% | 1017 hPa | - | - | - | - |
| 1777776981 | 13.89° C | 68% | 1017 hPa | - | - | - | - |
* Rain since midnight (hover to see other rain measurements)
** Current wind speed in m/s (hover to see current wind gust speed)